Folla — LLPD — position and weather

sailwx.info

Track history (hours):
 
Tides and Currents Weather Stations Pressure Air Temp Water Temp Dewpoint Dewpoint Depression Visibility Wind Speed Wind Dir Waves Ship Positions

Folla

Last reported at 2014-Nov-24 08:23 UTC. Time now 2014-Nov-24 16:08 UTC.
Position N 66°05' E 012°37'.

Length 52 m; draft 5 m.

Type: Cargo ship. MMSI: 258253000.

Date/timePositionNaut miles runAvg speedWind from/ knotsBaromVisibWave heightAir tempDewpointWater temp
2014-Nov-24 08:23N 66°05' E 012°37'1011.2
2014-Nov-24 07:31N 66°12' E 012°52'1111.1
2014-Nov-24 06:33N 66°23' E 012°57'1310.7
2014-Nov-24 05:18N 66°36' E 013°04'20 9.3
2014-Nov-24 03:08N 66°54' E 013°26'710.0
2014-Nov-24 02:25N 66°59' E 013°40'1111.2
2014-Nov-24 01:25N 67°07' E 013°60'910.9
2014-Nov-24 00:33N 67°14' E 014°14'2 2.4
2014-Nov-23 23:33N 67°17' E 014°12'171 5.7
2014-Nov-22 17:33N 69°34' E 018°48'9 8.5
2014-Nov-22 16:29N 69°42' E 019°01'0 0.0
2014-Nov-22 15:33N 69°42' E 019°01'2 1.7
2014-Nov-22 14:33N 69°41' E 018°59'0 0.2
2014-Nov-22 13:33N 69°40' E 018°59'234 7.3
2014-Nov-21 05:21N 66°29' E 012°60'911.4
2014-Nov-21 04:32N 66°20' E 012°56'9210.2
2014-Nov-20 19:33N 64°56' E 011°26'14 0.4
2014-Nov-19 11:10N 64°45' E 011°06'610.3
2014-Nov-19 10:33N 64°51' E 011°13'1 0.8
2014-Nov-19 09:33N 64°52' E 011°14'0 0.0
2014-Nov-19 08:33N 64°52' E 011°14'0 0.0
2014-Nov-19 07:33N 64°52' E 011°14'0 0.0
2014-Nov-19 06:33N 64°52' E 011°14'0 0.0
2014-Nov-19 05:33N 64°52' E 011°14'0 0.0
2014-Nov-19 04:33N 64°52' E 011°14'0 0.0
2014-Nov-19 03:33N 64°52' E 011°14'0 0.0
2014-Nov-19 02:33N 64°52' E 011°14'0 0.0
2014-Nov-19 01:33N 64°52' E 011°14'0 0.0
2014-Nov-19 00:33N 64°52' E 011°14'0 0.0
2014-Nov-18 23:33N 64°52' E 011°14'0 0.0
2014-Nov-18 18:33N 64°52' E 011°14'0 0.0
2014-Nov-18 17:30N 64°52' E 011°14'0 0.0
2014-Nov-18 16:33N 64°52' E 011°14'0 0.0
2014-Nov-18 15:26N 64°52' E 011°14'0 0.0
2014-Nov-18 14:29N 64°52' E 011°14'0 0.0
2014-Nov-18 12:33N 64°52' E 011°14'0 0.0
2014-Nov-18 11:33N 64°52' E 011°14'0 0.0
2014-Nov-18 10:33N 64°52' E 011°14'0 0.0
2014-Nov-18 09:33N 64°52' E 011°14'0 0.0
2014-Nov-18 08:33N 64°52' E 011°14'0 0.3
2014-Nov-18 07:33N 64°52' E 011°15'1 0.6
2014-Nov-18 06:33N 64°52' E 011°16'0 0.4
2014-Nov-18 05:33N 64°52' E 011°17'0 0.0
2014-Nov-18 04:33N 64°52' E 011°17'0 0.0
2014-Nov-18 03:33N 64°52' E 011°17'0 0.0
2014-Nov-18 02:33N 64°52' E 011°17'5 5.3
2014-Nov-18 01:32N 64°56' E 011°24'0 0.4
2014-Nov-18 00:33N 64°56' E 011°25'7510.6
2014-Nov-17 17:30N 66°04' E 012°39'16 8.2
2014-Nov-17 15:33N 66°19' E 012°56'1111.1
2014-Nov-17 14:32N 66°30' E 012°59'30 9.2
2014-Nov-17 11:16N 66°57' E 013°30'811.2
2014-Nov-17 10:33N 67°02' E 013°47'9 2.1
2014-Nov-17 06:21N 67°09' E 014°00'8 9.6
2014-Nov-17 05:33N 67°14' E 014°14'5 4.7
2014-Nov-17 04:33N 67°18' E 014°22'1111.0
2014-Nov-17 03:33N 67°29' E 014°28'1411.0
2014-Nov-17 02:18N 67°42' E 014°31'14510.4
2014-Nov-16 12:26N 69°34' E 018°46'1011.1
2014-Nov-16 11:33N 69°42' E 019°02'3 0.1
2014-Nov-15 16:33N 69°44' E 019°05'4 3.8
2014-Nov-15 15:33N 69°41' E 018°59'2 2.0
2014-Nov-15 14:33N 69°39' E 018°58'  
Track history (hours):
 
Tides and Currents Weather Stations Pressure Air Temp Water Temp Dewpoint Dewpoint Depression Visibility Wind Speed Wind Dir Waves Ship Positions

Folla

Last reported at 2014-Nov-24 08:23 UTC. Time now 2014-Nov-24 16:08 UTC.
Position N 66°05' E 012°37'.

Length 52 m; draft 5 m.

Type: Cargo ship. MMSI: 258253000.

Date/timePositionNaut miles runAvg speedWind from/ knotsBaromVisibWave heightAir tempDewpointWater temp
2014-Nov-24 08:23N 66°05' E 012°37'1011.2
2014-Nov-24 07:31N 66°12' E 012°52'1111.1
2014-Nov-24 06:33N 66°23' E 012°57'1310.7
2014-Nov-24 05:18N 66°36' E 013°04'20 9.3
2014-Nov-24 03:08N 66°54' E 013°26'710.0
2014-Nov-24 02:25N 66°59' E 013°40'1111.2
2014-Nov-24 01:25N 67°07' E 013°60'910.9
2014-Nov-24 00:33N 67°14' E 014°14'2 2.4
2014-Nov-23 23:33N 67°17' E 014°12'171 5.7
2014-Nov-22 17:33N 69°34' E 018°48'9 8.5
2014-Nov-22 16:29N 69°42' E 019°01'0 0.0
2014-Nov-22 15:33N 69°42' E 019°01'2 1.7
2014-Nov-22 14:33N 69°41' E 018°59'0 0.2
2014-Nov-22 13:33N 69°40' E 018°59'234 7.3
2014-Nov-21 05:21N 66°29' E 012°60'911.4
2014-Nov-21 04:32N 66°20' E 012°56'9210.2
2014-Nov-20 19:33N 64°56' E 011°26'14 0.4
2014-Nov-19 11:10N 64°45' E 011°06'610.3
2014-Nov-19 10:33N 64°51' E 011°13'1 0.8
2014-Nov-19 09:33N 64°52' E 011°14'0 0.0
2014-Nov-19 08:33N 64°52' E 011°14'0 0.0
2014-Nov-19 07:33N 64°52' E 011°14'0 0.0
2014-Nov-19 06:33N 64°52' E 011°14'0 0.0
2014-Nov-19 05:33N 64°52' E 011°14'0 0.0
2014-Nov-19 04:33N 64°52' E 011°14'0 0.0
2014-Nov-19 03:33N 64°52' E 011°14'0 0.0
2014-Nov-19 02:33N 64°52' E 011°14'0 0.0
2014-Nov-19 01:33N 64°52' E 011°14'0 0.0
2014-Nov-19 00:33N 64°52' E 011°14'0 0.0
2014-Nov-18 23:33N 64°52' E 011°14'0 0.0
2014-Nov-18 18:33N 64°52' E 011°14'0 0.0
2014-Nov-18 17:30N 64°52' E 011°14'0 0.0
2014-Nov-18 16:33N 64°52' E 011°14'0 0.0
2014-Nov-18 15:26N 64°52' E 011°14'0 0.0
2014-Nov-18 14:29N 64°52' E 011°14'0 0.0
2014-Nov-18 12:33N 64°52' E 011°14'0 0.0
2014-Nov-18 11:33N 64°52' E 011°14'0 0.0
2014-Nov-18 10:33N 64°52' E 011°14'0 0.0
2014-Nov-18 09:33N 64°52' E 011°14'0 0.0
2014-Nov-18 08:33N 64°52' E 011°14'0 0.3
2014-Nov-18 07:33N 64°52' E 011°15'1 0.6
2014-Nov-18 06:33N 64°52' E 011°16'0 0.4
2014-Nov-18 05:33N 64°52' E 011°17'0 0.0
2014-Nov-18 04:33N 64°52' E 011°17'0 0.0
2014-Nov-18 03:33N 64°52' E 011°17'0 0.0
2014-Nov-18 02:33N 64°52' E 011°17'5 5.3
2014-Nov-18 01:32N 64°56' E 011°24'0 0.4
2014-Nov-18 00:33N 64°56' E 011°25'7510.6
2014-Nov-17 17:30N 66°04' E 012°39'16 8.2
2014-Nov-17 15:33N 66°19' E 012°56'1111.1
2014-Nov-17 14:32N 66°30' E 012°59'30 9.2
2014-Nov-17 11:16N 66°57' E 013°30'811.2
2014-Nov-17 10:33N 67°02' E 013°47'9 2.1
2014-Nov-17 06:21N 67°09' E 014°00'8 9.6
2014-Nov-17 05:33N 67°14' E 014°14'5 4.7
2014-Nov-17 04:33N 67°18' E 014°22'1111.0
2014-Nov-17 03:33N 67°29' E 014°28'1411.0
2014-Nov-17 02:18N 67°42' E 014°31'14510.4
2014-Nov-16 12:26N 69°34' E 018°46'1011.1
2014-Nov-16 11:33N 69°42' E 019°02'3 0.1
2014-Nov-15 16:33N 69°44' E 019°05'4 3.8
2014-Nov-15 15:33N 69°41' E 018°59'2 2.0
2014-Nov-15 14:33N 69°39' E 018°58'  

Dump ship's entire track history